createdAt,value
2018-05-24T00:01:26.651Z,1.30
2018-05-24T00:03:54.239Z,1.40
2018-05-24T00:06:21.720Z,1.30
2018-05-24T00:08:49.180Z,1.20
2018-05-24T00:11:16.768Z,1.20
2018-05-24T00:13:44.219Z,1.27
2018-05-24T00:16:11.780Z,1.23
2018-05-24T00:18:39.288Z,1.40
2018-05-24T00:21:06.915Z,1.30
2018-05-24T00:23:34.372Z,1.10
2018-05-24T00:26:01.899Z,1.20
2018-05-24T00:28:29.374Z,1.00
2018-05-24T00:30:56.824Z,1.30
2018-05-24T00:33:24.271Z,1.40
2018-05-24T00:35:51.727Z,1.20
2018-05-24T00:38:19.196Z,1.30
2018-05-24T00:40:46.644Z,1.13
2018-05-24T00:43:14.108Z,1.30
2018-05-24T00:45:41.589Z,1.20
2018-05-24T00:48:09.116Z,1.37
2018-05-24T00:50:36.768Z,1.10
2018-05-24T00:53:04.219Z,1.10
2018-05-24T00:55:40.521Z,1.23
2018-05-24T00:58:07.978Z,1.30
2018-05-24T01:00:36.206Z,1.10
2018-05-24T01:03:03.856Z,1.30
2018-05-24T01:05:31.418Z,1.20
2018-05-24T01:07:58.887Z,1.10
2018-05-24T01:10:26.356Z,1.10
2018-05-24T01:12:53.802Z,1.30
2018-05-24T01:15:21.262Z,1.20
2018-05-24T01:17:48.715Z,1.10
2018-05-24T01:20:16.199Z,1.20
2018-05-24T01:22:43.947Z,0.90
2018-05-24T01:25:11.599Z,1.30
2018-05-24T01:27:39.085Z,1.30
2018-05-24T01:30:06.549Z,1.53
2018-05-24T01:32:33.991Z,1.43
2018-05-24T01:35:01.455Z,1.40
2018-05-24T01:37:40.644Z,1.23
2018-05-24T01:40:08.139Z,1.27
2018-05-24T01:42:35.705Z,1.20
2018-05-24T01:45:03.363Z,1.10
2018-05-24T01:47:30.819Z,1.10
2018-05-24T01:49:58.296Z,1.30
2018-05-24T01:52:26.031Z,1.00
2018-05-24T01:54:53.603Z,1.20
2018-05-24T01:57:21.122Z,1.00
2018-05-24T01:59:48.585Z,1.20
2018-05-24T02:02:16.093Z,1.17
2018-05-24T02:04:43.546Z,1.20
2018-05-24T02:07:11.917Z,1.20
2018-05-24T02:09:39.436Z,1.00
2018-05-24T02:12:06.823Z,1.30
2018-05-24T02:14:34.387Z,1.10
2018-05-24T02:17:01.843Z,1.03
2018-05-24T02:19:29.307Z,1.17
2018-05-24T02:21:56.900Z,0.90
2018-05-24T02:24:25.126Z,1.10
2018-05-24T02:26:52.615Z,1.03
2018-05-24T02:29:20.367Z,1.00
2018-05-24T02:31:48.129Z,1.03
2018-05-24T02:34:15.784Z,1.27
2018-05-24T02:36:43.259Z,1.00
2018-05-24T02:39:11.119Z,1.30
2018-05-24T02:41:38.882Z,1.20
2018-05-24T02:44:06.343Z,1.30
2018-05-24T02:46:33.848Z,1.00
2018-05-24T02:49:01.427Z,1.10
2018-05-24T02:51:29.021Z,1.00
2018-05-24T02:53:56.683Z,1.00
2018-05-24T02:56:24.337Z,1.40
2018-05-24T02:58:52.007Z,1.30
2018-05-24T03:01:19.648Z,1.20
2018-05-24T03:03:47.144Z,1.43
2018-05-24T03:06:14.617Z,1.37
2018-05-24T03:08:42.148Z,1.20
2018-05-24T03:11:09.607Z,1.00
2018-05-24T03:13:37.247Z,1.10
2018-05-24T03:16:04.836Z,1.27
2018-05-24T03:18:32.402Z,1.23
2018-05-24T03:20:59.859Z,1.40
2018-05-24T03:23:27.516Z,1.20
2018-05-24T03:25:54.971Z,1.20
2018-05-24T03:28:22.532Z,1.60
2018-05-24T03:30:49.983Z,1.57
2018-05-24T03:33:17.580Z,1.30
2018-05-24T03:35:45.044Z,1.40
2018-05-24T03:38:12.496Z,1.13
2018-05-24T03:40:39.948Z,1.77
2018-05-24T03:43:07.413Z,1.30
2018-05-24T03:45:34.907Z,1.30
2018-05-24T03:48:02.354Z,1.30
2018-05-24T03:50:29.801Z,1.27
2018-05-24T03:52:57.323Z,1.00
2018-05-24T03:55:24.782Z,1.17
2018-05-24T03:57:52.494Z,1.10
2018-05-24T04:00:31.791Z,1.20
2018-05-24T04:03:11.111Z,1.00
2018-05-24T04:05:39.465Z,1.30
2018-05-24T04:08:07.619Z,1.40
2018-05-24T04:10:35.199Z,1.03
2018-05-24T04:13:02.649Z,1.30
2018-05-24T04:15:30.105Z,1.57
2018-05-24T04:17:57.651Z,1.30
2018-05-24T04:20:25.103Z,1.27
2018-05-24T04:22:52.577Z,1.20
2018-05-24T04:25:20.019Z,1.30
2018-05-24T04:27:47.487Z,1.50
2018-05-24T04:30:14.939Z,1.20
2018-05-24T04:32:42.390Z,1.40
2018-05-24T04:35:09.863Z,1.63
2018-05-24T04:37:37.368Z,1.50
2018-05-24T04:40:05.136Z,1.50
2018-05-24T04:42:32.790Z,1.57
2018-05-24T04:45:00.363Z,1.47
2018-05-24T04:47:28.455Z,1.67
2018-05-24T04:49:56.111Z,1.50
2018-05-24T04:52:23.647Z,1.43
2018-05-24T04:54:51.103Z,1.60
2018-05-24T04:57:18.564Z,1.47
2018-05-24T04:59:46.324Z,1.60
2018-05-24T05:02:13.968Z,1.30
2018-05-24T05:04:41.427Z,1.90
2018-05-24T05:07:09.019Z,2.07
2018-05-24T05:09:36.479Z,2.40
2018-05-24T05:12:03.937Z,2.20
2018-05-24T05:14:31.393Z,2.63
2018-05-24T05:16:58.858Z,2.23
2018-05-24T05:19:26.624Z,1.90
2018-05-24T05:21:54.374Z,2.13
2018-05-24T05:24:22.023Z,2.20
2018-05-24T05:26:49.564Z,1.90
2018-05-24T05:29:16.959Z,2.00
2018-05-24T05:31:44.431Z,2.10
2018-05-24T05:34:11.896Z,1.97
2018-05-24T05:36:39.344Z,2.23
2018-05-24T05:39:06.803Z,2.30
2018-05-24T05:41:34.267Z,2.73
2018-05-24T05:44:01.723Z,1.80
2018-05-24T05:46:29.174Z,2.43
2018-05-24T05:48:56.634Z,2.20
2018-05-24T05:51:25.140Z,2.20
2018-05-24T05:53:52.637Z,2.07
2018-05-24T05:56:20.328Z,2.27
2018-05-24T05:58:47.779Z,2.30
2018-05-24T06:01:15.223Z,2.07
2018-05-24T06:03:43.017Z,2.20
2018-05-24T06:06:10.651Z,2.30
2018-05-24T06:08:38.240Z,2.30
2018-05-24T06:11:05.695Z,2.40
2018-05-24T06:13:33.147Z,2.00
2018-05-24T06:16:00.613Z,1.87
2018-05-24T06:18:28.069Z,2.20
2018-05-24T06:20:55.742Z,1.97
2018-05-24T06:23:24.207Z,2.07
2018-05-24T06:25:52.003Z,2.33
2018-05-24T06:28:19.739Z,2.07
2018-05-24T06:30:47.191Z,2.80
2018-05-24T06:33:14.643Z,2.20
2018-05-24T06:35:42.286Z,2.20
2018-05-24T06:38:09.855Z,2.00
2018-05-24T06:40:37.692Z,2.00
2018-05-24T06:43:05.399Z,1.73
2018-05-24T06:45:32.859Z,1.83
2018-05-24T06:48:00.494Z,1.90
2018-05-24T06:50:28.140Z,1.70
2018-05-24T06:52:55.853Z,2.00
2018-05-24T06:55:23.313Z,2.30
2018-05-24T06:57:50.771Z,1.93
2018-05-24T07:00:18.395Z,2.40
2018-05-24T07:02:45.893Z,2.00
2018-05-24T07:05:13.442Z,2.13
2018-05-24T07:07:40.895Z,2.27
2018-05-24T07:10:08.693Z,1.70
2018-05-24T07:12:36.136Z,2.33
2018-05-24T07:15:03.759Z,1.87
2018-05-24T07:17:31.347Z,2.13
2018-05-24T07:19:58.797Z,2.20
2018-05-24T07:22:26.245Z,2.10
2018-05-24T07:24:53.694Z,1.70
2018-05-24T07:27:21.175Z,1.87
2018-05-24T07:29:48.623Z,1.77
2018-05-24T07:32:16.267Z,1.80
2018-05-24T07:34:43.870Z,1.83
2018-05-24T07:37:11.596Z,1.90
2018-05-24T07:39:39.124Z,1.90
2018-05-24T07:42:06.560Z,1.63
2018-05-24T07:44:34.021Z,1.60
2018-05-24T07:47:01.473Z,2.23
2018-05-24T07:49:28.927Z,1.80
2018-05-24T07:51:56.384Z,1.73
2018-05-24T07:54:23.837Z,1.70
2018-05-24T07:56:51.283Z,2.00
2018-05-24T07:59:19.116Z,1.77
2018-05-24T08:01:46.728Z,1.40
2018-05-24T08:04:14.202Z,1.50
2018-05-24T08:06:42.834Z,1.73
2018-05-24T08:09:10.754Z,1.40
2018-05-24T08:11:38.532Z,1.53
2018-05-24T08:14:06.275Z,1.83
2018-05-24T08:16:33.723Z,1.40
2018-05-24T08:19:01.390Z,1.50
2018-05-24T08:21:29.590Z,2.03
2018-05-24T08:23:57.335Z,2.00
2018-05-24T08:26:25.615Z,1.90
2018-05-24T08:28:53.071Z,1.67
2018-05-24T08:31:20.525Z,1.60
2018-05-24T08:33:48.179Z,1.33
2018-05-24T08:36:15.843Z,1.40
2018-05-24T08:38:43.321Z,1.57
2018-05-24T08:41:10.773Z,1.63
2018-05-24T08:43:38.704Z,1.90
2018-05-24T08:46:06.224Z,1.90
2018-05-24T08:48:33.746Z,1.50
2018-05-24T08:51:01.525Z,1.57
2018-05-24T08:53:29.242Z,1.50
2018-05-24T08:55:56.608Z,1.63
2018-05-24T08:58:24.191Z,1.60
2018-05-24T09:00:51.833Z,1.57
2018-05-24T09:03:19.418Z,1.70
2018-05-24T09:05:46.877Z,1.60
2018-05-24T09:08:14.591Z,1.77
2018-05-24T09:10:42.115Z,1.50
2018-05-24T09:13:09.655Z,1.43
2018-05-24T09:15:37.115Z,1.60
2018-05-24T09:18:04.656Z,1.20
2018-05-24T09:20:32.118Z,1.60
2018-05-24T09:22:59.570Z,1.57
2018-05-24T09:25:27.076Z,1.60
2018-05-24T09:27:54.514Z,1.33
2018-05-24T09:30:22.073Z,1.60
2018-05-24T09:32:49.527Z,1.30
2018-05-24T09:35:16.988Z,1.63
2018-05-24T09:37:44.751Z,1.63
2018-05-24T09:40:12.296Z,1.30
2018-05-24T09:42:39.865Z,1.60
2018-05-24T09:45:07.439Z,2.50
2018-05-24T09:47:34.887Z,1.87
2018-05-24T09:50:02.530Z,1.60
2018-05-24T09:52:30.110Z,1.43
2018-05-24T09:54:57.879Z,1.27
2018-05-24T09:57:25.675Z,1.30
2018-05-24T09:59:53.320Z,1.33
2018-05-24T10:02:20.786Z,1.50
2018-05-24T10:04:48.323Z,1.37
2018-05-24T10:07:15.785Z,1.83
2018-05-24T10:09:43.556Z,1.50
2018-05-24T10:12:11.004Z,1.40
2018-05-24T10:14:38.464Z,1.70
2018-05-24T10:17:05.907Z,1.47
2018-05-24T10:19:33.687Z,1.30
2018-05-24T10:22:01.139Z,1.30
2018-05-24T10:24:28.591Z,1.40
2018-05-24T10:26:56.112Z,1.40
2018-05-24T10:29:23.779Z,1.30
2018-05-24T10:31:51.202Z,1.50
2018-05-24T10:34:19.664Z,1.37
2018-05-24T10:36:47.115Z,1.37
2018-05-24T10:39:14.756Z,1.40
2018-05-24T10:41:43.276Z,1.20
2018-05-24T10:44:11.036Z,1.30
2018-05-24T10:46:38.504Z,1.23
2018-05-24T10:49:06.048Z,1.30
2018-05-24T10:51:33.503Z,1.40
2018-05-24T10:54:01.182Z,1.40
2018-05-24T10:56:28.771Z,1.57
2018-05-24T10:58:57.007Z,1.67
2018-05-24T11:01:24.469Z,1.10
2018-05-24T11:03:51.910Z,1.50
2018-05-24T11:06:19.535Z,1.27
2018-05-24T11:08:46.911Z,1.40
2018-05-24T11:11:14.532Z,1.23
2018-05-24T11:13:41.981Z,1.30
2018-05-24T11:16:10.314Z,1.20
2018-05-24T11:18:37.771Z,1.20
2018-05-24T11:21:05.231Z,1.40
2018-05-24T11:23:32.823Z,1.37
2018-05-24T11:26:00.382Z,1.60
2018-05-24T11:28:27.820Z,1.10
2018-05-24T11:30:55.371Z,1.40
2018-05-24T11:33:22.868Z,1.53
2018-05-24T11:35:50.372Z,1.47
2018-05-24T11:38:17.872Z,1.83
2018-05-24T11:40:45.345Z,1.83
2018-05-24T11:43:12.812Z,1.60
2018-05-24T11:45:40.260Z,1.63
2018-05-24T11:48:08.011Z,2.20
2018-05-24T11:50:35.507Z,1.47
2018-05-24T11:53:03.104Z,1.47
2018-05-24T11:55:30.761Z,1.40
2018-05-24T11:57:58.222Z,1.57
2018-05-24T12:00:26.102Z,1.87
2018-05-24T12:02:53.588Z,1.43
2018-05-24T12:05:21.070Z,1.40
2018-05-24T12:07:48.620Z,1.27
2018-05-24T12:10:16.234Z,1.60
2018-05-24T12:12:43.687Z,1.17
2018-05-24T12:15:11.287Z,1.93
2018-05-24T12:17:38.647Z,1.33
2018-05-24T12:20:06.199Z,1.30
2018-05-24T12:22:33.656Z,1.70
2018-05-24T12:25:01.298Z,1.30
2018-05-24T12:27:28.778Z,1.83
2018-05-24T12:29:56.339Z,3.20
2018-05-24T12:32:23.984Z,2.30
2018-05-24T12:34:51.567Z,3.50
2018-05-24T12:37:19.330Z,2.70
2018-05-24T12:39:46.784Z,3.00
2018-05-24T12:42:14.234Z,2.30
2018-05-24T12:44:41.879Z,2.57
2018-05-24T12:47:09.344Z,2.27
2018-05-24T12:49:36.856Z,2.30
2018-05-24T12:52:04.384Z,2.50
2018-05-24T12:54:31.852Z,2.40
2018-05-24T12:56:59.484Z,2.50
2018-05-24T12:59:27.068Z,2.50
2018-05-24T13:01:54.527Z,2.60
2018-05-24T13:04:22.275Z,2.93
2018-05-24T13:06:49.752Z,2.27
2018-05-24T13:09:17.258Z,2.80
2018-05-24T13:11:44.839Z,2.40
2018-05-24T13:14:12.307Z,3.10
2018-05-24T13:16:39.772Z,1.90
2018-05-24T13:19:07.347Z,2.97
2018-05-24T13:21:34.903Z,2.80
2018-05-24T13:24:02.523Z,2.90
2018-05-24T13:26:30.045Z,2.87
2018-05-24T13:28:57.612Z,2.10
2018-05-24T13:31:25.059Z,2.60
2018-05-24T13:33:53.628Z,2.73
2018-05-24T13:36:21.269Z,2.20
2018-05-24T13:38:48.847Z,2.80
2018-05-24T13:41:16.299Z,2.60
2018-05-24T13:43:43.771Z,2.30
2018-05-24T13:46:11.344Z,2.03
2018-05-24T13:48:38.869Z,2.40
2018-05-24T13:51:06.452Z,2.13
2018-05-24T13:53:34.213Z,2.20
2018-05-24T13:56:01.772Z,1.90
2018-05-24T13:58:29.430Z,2.60
2018-05-24T14:00:58.257Z,2.47
2018-05-24T14:03:25.854Z,1.83
2018-05-24T14:05:53.347Z,2.07
2018-05-24T14:08:20.799Z,2.13
2018-05-24T14:10:48.249Z,2.23
2018-05-24T14:13:16.023Z,1.90
2018-05-24T14:15:43.502Z,2.33
2018-05-24T14:18:10.964Z,2.00
2018-05-24T14:20:38.573Z,2.63
2018-05-24T14:23:06.046Z,2.13
2018-05-24T14:25:36.970Z,2.57
2018-05-24T14:28:04.467Z,2.40
2018-05-24T14:30:32.171Z,2.00
2018-05-24T14:32:59.625Z,1.90
2018-05-24T14:35:27.459Z,1.90
2018-05-24T14:37:56.646Z,2.10
2018-05-24T14:40:24.176Z,1.80
2018-05-24T14:42:51.717Z,1.87
2018-05-24T14:45:19.442Z,1.87
2018-05-24T14:47:52.763Z,1.97
2018-05-24T14:50:20.356Z,2.03
2018-05-24T14:52:47.948Z,2.33
2018-05-24T14:55:15.727Z,2.00
2018-05-24T14:57:43.366Z,2.00
2018-05-24T15:00:10.814Z,2.27
2018-05-24T15:02:38.339Z,1.87
2018-05-24T15:05:05.847Z,2.20
2018-05-24T15:07:33.411Z,1.90
2018-05-24T15:10:00.995Z,1.80
2018-05-24T15:12:28.542Z,2.10
2018-05-24T15:14:55.996Z,1.77
2018-05-24T15:17:23.627Z,1.97
2018-05-24T15:19:51.071Z,1.67
2018-05-24T15:22:18.551Z,1.90
2018-05-24T15:24:46.035Z,1.80
2018-05-24T15:27:13.587Z,1.97
2018-05-24T15:29:41.055Z,1.70
2018-05-24T15:32:08.707Z,1.70
2018-05-24T15:34:36.292Z,1.50
2018-05-24T15:37:03.784Z,1.83
2018-05-24T15:39:31.231Z,1.93
2018-05-24T15:41:58.883Z,1.80
2018-05-24T15:44:26.411Z,1.77
2018-05-24T15:46:54.043Z,1.43
2018-05-24T15:49:21.647Z,2.03
2018-05-24T15:51:49.194Z,1.60
2018-05-24T15:54:16.739Z,1.60
2018-05-24T15:56:44.316Z,1.63
2018-05-24T15:59:11.919Z,1.80
2018-05-24T16:01:39.433Z,1.50
2018-05-24T16:04:07.000Z,1.40
2018-05-24T16:06:34.627Z,1.87
2018-05-24T16:09:02.220Z,1.93
2018-05-24T16:11:31.204Z,1.30
2018-05-24T16:13:58.801Z,1.63
2018-05-24T16:16:26.382Z,1.50
2018-05-24T16:18:53.896Z,1.70
2018-05-24T16:21:21.451Z,1.47
2018-05-24T16:23:49.118Z,1.70
2018-05-24T16:26:16.890Z,1.70
2018-05-24T16:28:44.519Z,1.60
2018-05-24T16:31:11.972Z,1.40
2018-05-24T16:33:39.570Z,1.30
2018-05-24T16:36:07.337Z,1.53
2018-05-24T16:38:34.967Z,1.50
2018-05-24T16:41:02.424Z,1.53
2018-05-24T16:43:29.982Z,1.50
2018-05-24T16:45:57.745Z,1.87
2018-05-24T16:48:25.192Z,1.67
2018-05-24T16:50:52.708Z,1.30
2018-05-24T16:53:20.478Z,1.60
2018-05-24T16:55:48.115Z,1.50
2018-05-24T16:58:15.686Z,1.40
2018-05-24T17:00:43.246Z,1.63
2018-05-24T17:03:10.747Z,1.60
2018-05-24T17:05:39.119Z,1.30
2018-05-24T17:08:07.343Z,1.40
2018-05-24T17:10:34.872Z,1.53
2018-05-24T17:13:02.375Z,1.50
2018-05-24T17:15:29.943Z,1.57
2018-05-24T17:17:57.506Z,1.43
2018-05-24T17:20:25.436Z,2.00
2018-05-24T17:22:52.936Z,2.00
2018-05-24T17:25:20.600Z,1.97
2018-05-24T17:27:48.242Z,2.20
2018-05-24T17:30:15.886Z,2.10
2018-05-24T17:32:43.481Z,2.17
2018-05-24T17:35:11.126Z,2.13
2018-05-24T17:37:38.675Z,1.60
2018-05-24T17:40:06.131Z,2.00
2018-05-24T17:42:33.619Z,2.00
2018-05-24T17:45:01.067Z,2.00
2018-05-24T17:47:29.275Z,1.73
2018-05-24T17:49:56.826Z,2.10
2018-05-24T17:52:24.263Z,1.87
2018-05-24T17:54:51.774Z,1.53
2018-05-24T17:57:19.223Z,1.57
2018-05-24T17:59:46.683Z,1.70
2018-05-24T18:02:14.136Z,1.93
2018-05-24T18:04:41.605Z,2.23
2018-05-24T18:07:09.098Z,1.70
2018-05-24T18:09:37.361Z,1.77
2018-05-24T18:12:05.627Z,1.43
2018-05-24T18:14:33.168Z,1.60
2018-05-24T18:17:00.625Z,1.53
2018-05-24T18:19:28.172Z,2.27
2018-05-24T18:21:55.734Z,1.87
2018-05-24T18:24:23.182Z,1.80
2018-05-24T18:26:50.743Z,1.83
2018-05-24T18:29:18.297Z,2.20
2018-05-24T18:31:45.850Z,2.20
2018-05-24T18:34:13.302Z,1.63
2018-05-24T18:36:40.839Z,1.73
2018-05-24T18:39:08.300Z,2.13
2018-05-24T18:41:35.744Z,1.63
2018-05-24T18:44:03.195Z,1.90
2018-05-24T18:46:30.643Z,1.90
2018-05-24T18:48:58.480Z,1.50
2018-05-24T18:51:25.899Z,1.90
2018-05-24T18:53:53.371Z,1.63
2018-05-24T18:56:20.814Z,1.70
2018-05-24T18:58:49.103Z,1.50
2018-05-24T19:01:16.561Z,1.87
2018-05-24T19:03:44.118Z,1.70
2018-05-24T19:06:11.666Z,1.90
2018-05-24T19:08:39.132Z,1.50
2018-05-24T19:11:06.583Z,1.83
2018-05-24T19:13:34.026Z,1.70
2018-05-24T19:16:01.478Z,1.40
2018-05-24T19:18:28.951Z,1.83
2018-05-24T19:20:56.528Z,1.53
2018-05-24T19:23:23.968Z,1.67
2018-05-24T19:25:51.519Z,1.77
2018-05-24T19:28:18.966Z,2.00
2018-05-24T19:30:46.426Z,1.77
2018-05-24T19:33:13.882Z,1.80
2018-05-24T19:35:41.349Z,2.23
2018-05-24T19:38:08.795Z,2.23
2018-05-24T19:40:36.283Z,1.87
2018-05-24T19:43:04.507Z,1.83
2018-05-24T19:45:31.975Z,2.20
2018-05-24T19:47:59.746Z,2.00
2018-05-24T19:50:27.203Z,2.30
2018-05-24T19:52:54.650Z,1.80
2018-05-24T19:55:22.094Z,1.90
2018-05-24T19:57:49.554Z,1.97
2018-05-24T20:00:17.017Z,1.80
2018-05-24T20:02:44.459Z,1.50
2018-05-24T20:05:11.939Z,2.10
2018-05-24T20:07:39.395Z,2.13
2018-05-24T20:10:06.859Z,1.70
2018-05-24T20:12:34.303Z,1.93
2018-05-24T20:15:01.755Z,1.80
2018-05-24T20:17:29.218Z,1.70
2018-05-24T20:19:56.674Z,1.80
2018-05-24T20:22:24.127Z,1.80
2018-05-24T20:24:51.688Z,2.17
2018-05-24T20:27:19.152Z,2.27
2018-05-24T20:29:46.619Z,2.10
2018-05-24T20:32:14.160Z,2.13
2018-05-24T20:34:41.619Z,2.60
2018-05-24T20:37:09.175Z,2.30
2018-05-24T20:39:36.626Z,2.00
2018-05-24T20:42:04.190Z,2.13
2018-05-24T20:44:31.636Z,2.50
2018-05-24T20:46:59.095Z,2.10
2018-05-24T20:49:26.554Z,2.10
2018-05-24T20:51:54.002Z,1.97
2018-05-24T20:54:21.450Z,2.10
2018-05-24T20:56:48.915Z,2.00
2018-05-24T20:59:16.363Z,1.70
2018-05-24T21:01:44.239Z,1.97
2018-05-24T21:04:11.767Z,1.80
2018-05-24T21:06:39.216Z,1.90
2018-05-24T21:09:06.675Z,1.80
2018-05-24T21:11:34.131Z,1.80
2018-05-24T21:14:01.614Z,2.10
2018-05-24T21:16:29.044Z,1.93
2018-05-24T21:18:56.543Z,1.73
2018-05-24T21:21:23.996Z,1.80
2018-05-24T21:23:51.452Z,2.20
2018-05-24T21:26:18.909Z,2.30
2018-05-24T21:28:46.365Z,2.23
2018-05-24T21:31:13.818Z,2.60
2018-05-24T21:33:41.282Z,2.33
2018-05-24T21:36:08.730Z,2.30
2018-05-24T21:38:36.292Z,2.00
2018-05-24T21:41:03.749Z,1.80
2018-05-24T21:43:31.194Z,2.00
2018-05-24T21:45:58.756Z,1.90
2018-05-24T21:48:26.283Z,1.90
2018-05-24T21:50:53.871Z,2.17
2018-05-24T21:53:21.343Z,2.37
2018-05-24T21:55:48.795Z,2.13
2018-05-24T21:58:16.240Z,2.30
2018-05-24T22:00:49.506Z,1.93
2018-05-24T22:03:16.983Z,2.00
2018-05-24T22:05:44.438Z,2.10
2018-05-24T22:08:11.891Z,1.83
2018-05-24T22:10:39.347Z,2.30
2018-05-24T22:13:06.802Z,2.20
2018-05-24T22:15:34.251Z,1.73
2018-05-24T22:18:01.720Z,1.80
2018-05-24T22:20:29.183Z,1.93
2018-05-24T22:22:56.667Z,1.60
2018-05-24T22:25:24.915Z,2.20
2018-05-24T22:27:52.470Z,1.97
2018-05-24T22:30:20.023Z,2.00
2018-05-24T22:32:47.474Z,2.00
2018-05-24T22:35:14.924Z,1.77
2018-05-24T22:37:42.494Z,2.20
2018-05-24T22:40:10.102Z,1.90
2018-05-24T22:42:37.506Z,2.10
2018-05-24T22:45:04.967Z,2.00
2018-05-24T22:47:32.523Z,2.00
2018-05-24T22:50:00.082Z,1.83
2018-05-24T22:52:27.640Z,1.60
2018-05-24T22:54:55.171Z,1.87
2018-05-24T22:57:22.655Z,2.27
2018-05-24T22:59:50.219Z,2.00
2018-05-24T23:02:17.760Z,1.97
2018-05-24T23:04:45.216Z,2.20
2018-05-24T23:07:12.675Z,1.63
2018-05-24T23:09:40.143Z,1.80
2018-05-24T23:12:07.611Z,1.90
2018-05-24T23:14:35.146Z,1.90
2018-05-24T23:17:02.602Z,1.90
2018-05-24T23:19:30.070Z,1.80
2018-05-24T23:21:57.528Z,2.03
2018-05-24T23:24:24.999Z,1.80
2018-05-24T23:26:52.535Z,1.80
2018-05-24T23:29:20.091Z,2.10
2018-05-24T23:31:47.647Z,1.70
2018-05-24T23:34:15.103Z,1.67
2018-05-24T23:36:42.667Z,1.83
2018-05-24T23:39:10.119Z,1.70
2018-05-24T23:41:37.575Z,1.83
2018-05-24T23:44:05.064Z,1.93
2018-05-24T23:46:32.474Z,1.60
2018-05-24T23:48:59.934Z,1.80
2018-05-24T23:51:27.387Z,1.63
2018-05-24T23:53:54.857Z,1.57
2018-05-24T23:56:22.312Z,1.83
2018-05-24T23:58:49.766Z,1.60
